• Join FlightAware (Why Join?)
  • Login
  • US Flag 
06:32AM EDT


 

Airport Tracker/Info


-or-


 

Live Flight TrackerFlight Track Log ✈ RPA3321 ✈ 27/Jun/2013 ✈ KALB - KDCA

Flight Track Log - Related Links

Times and Time Zones

All times are in EDT time to prevent confusion due to time zone crossing. See the RPA3321 flight status page for this flight to view local times or setup timezone preferences in your user account.

Time Position Orientation Groundspeed Altitude Reporting Facility
EDT Latitude Longitude Course Direction KTS MPH feet Rate Location/Type
05:48AM 42.7694 -73.8089 169° South 150 173 1,600  Level Boston Center
05:48AM 42.7922 -73.8208 339° North 165 190 2,700 2,760 Climbing Boston Center
05:50AM 42.8700 -73.9331 313° West 269 310 8,100 3,120 Climbing Boston Center
05:51AM 42.4273 -74.0872 180° South  Level Estimated
05:51AM 42.8667 -74.0264 267° West 238 274 11,300  Level Boston Center
05:52AM 42.3467 -74.1581 170° South  Level Estimated
05:52AM 42.8036 -74.0531 197° South 180 207 12,700  Level Boston Center
05:53AM 42.2661 -74.2287 169° South  Level Estimated
05:53AM 42.7167 -74.0142 162° South 197 227 15,600  Level Boston Center
05:54AM 42.6236 -73.9722 162° South 291 335 17,800 2,100 Climbing Boston Center
05:55AM 42.5239 -73.9303 163° South 338 389 19,900 2,280 Climbing Boston Center
05:56AM 42.4225 -73.8886 163° South 370 426 22,400 2,100 Climbing Boston Center
05:57AM 42.3164 -73.8778 176° South 381 438 24,200 1,680 Climbing Boston Center
05:58AM 42.2039 -73.8722 178° South 393 452 25,800 1,620 Climbing Boston Center
05:59AM 42.0889 -73.8919 187° South 409 471 27,500 1,080 Climbing Boston Center
06:00AM 41.9778 -73.9369 197° South 409 471 28,000 180 Climbing Boston Center
06:01AM 41.8606 -73.9817 196° South 419 482 28,000  Level Boston Center
06:03AM 41.6550 -74.0639 197° South 422 486 28,000  Level New York Center
06:04AM 41.5308 -74.1131 197° South 427 491 28,000  Level New York Center
06:05AM 41.4172 -74.1572 196° South 427 491 28,000  Level New York Center
06:06AM 41.3011 -74.2039 197° South 427 491 28,000  Level New York Center
06:07AM 41.1833 -74.2447 195° South 432 497 28,000  Level New York Center
06:08AM 41.0675 -74.2911 197° South 439 505 28,000  Level New York Center
06:09AM 40.9536 -74.3372 197° South 439 505 28,000  Level New York Center
06:10AM 40.8431 -74.4056 205° Southwest 439 505 28,000  Level New York Center
06:11AM 40.7561 -74.5269 227° Southwest 439 505 28,000 -300 Level New York Center
06:12AM 40.6708 -74.6453 226° Southwest 439 505 27,400 -1,080 Descending New York Center
06:13AM 40.5881 -74.7581 226° Southwest 444 511 25,900 -1,620 Descending New York Center
06:14AM 40.5050 -74.8733 227° Southwest 444 511 24,300 -1,440 Descending New York Center
06:15AM 40.4261 -74.9833 227° Southwest 436 502 23,000 -660 Descending New York Center
06:16AM 40.3450 -75.0928 226° Southwest 430 495 23,000  Level New York Center
06:17AM 40.2639 -75.1992 225° Southwest 430 495 23,000  Level New York Center
06:18AM 40.1867 -75.3083 227° Southwest 424 488 23,000 -300 Level New York Center
06:19AM 40.1053 -75.4169 226° Southwest 419 482 22,500 -540 Descending New York Center
06:20AM 40.0283 -75.5231 227° Southwest 419 482 22,000 -300 Descending New York Center
06:21AM 39.9508 -75.6342 228° Southwest 414 476 22,000  Level New York Center
06:22AM 39.8792 -75.7483 231° Southwest 414 476 22,000  Level New York Center
06:23AM 39.8078 -75.8594 230° Southwest 414 476 22,000 -1,020 Level New York Center
06:24AM 39.7000 -76.0167 228° Southwest 365 420 19,500 -1,800 Descending Potomac TRACON
06:26AM 39.6399 -76.1869 237° Southwest  Level FlightAware Approximate
06:26AM 39.5833 -76.2167 237° Southwest 351 404 15,700  Level Potomac TRACON
06:28AM 39.5059 -76.3620 212° Southwest  Level FlightAware Approximate
06:29AM 39.4000 -76.4667 180° South 325 374 10,600  Level Potomac TRACON
06:30AM 39.3333 -76.5333 218° Southwest 306 352 10,000 -300 Descending Potomac TRACON
06:31AM 39.2500 -76.5833 205° Southwest 290 334 10,000  Level Potomac TRACON
06:32AM 39.2000 -76.6333 218° Southwest 282 325 10,000  Level Potomac TRACON
06:33AM 39.1500 -76.7000 226° Southwest 278 320 10,000  Level Potomac TRACON
06:34AM 39.0833 -76.7667 218° Southwest 276 318 10,000  Level Potomac TRACON
06:35AM 38.8662 -76.9333 180° South  Level FlightAware Approximate
06:35AM 39.0333 -76.8333 226° Southwest 277 319 10,000  Level Potomac TRACON
06:36AM 38.9833 -76.8833 218° Southwest 273 314 8,600 -1,620 Descending Potomac TRACON
06:37AM 38.9167 -76.9333 210° Southwest 268 308 7,000 -900 Descending Potomac TRACON
06:38AM 38.8667 -76.9500 195° South 220 253 7,000 -480 Level Potomac TRACON
06:39AM 38.8000 -76.9500 180° South 186 214 6,100 -1,020 Descending Potomac TRACON
06:40AM 38.7667 -76.9500 180° South 180 207 5,100 -1,140 Descending Potomac TRACON
06:41AM 38.7167 -76.9333 165° South 177 204 4,000 -600 Descending Potomac TRACON
06:42AM 38.6667 -76.9333 180° South 175 201 4,000  Level Potomac TRACON
06:43AM 38.6167 -76.9333 180° South 178 205 4,000  Level Potomac TRACON
06:44AM 38.5667 -76.9167 165° South 179 206 4,000 -480 Level Potomac TRACON
06:45AM 38.5333 -76.9500 218° Southwest 183 211 3,200 -540 Descending Potomac TRACON
06:46AM 38.5500 -77.0000 293° West 187 215 3,000 -120 Descending Potomac TRACON
06:46AM 38.6000 -77.0167 345° North 193 222 3,000  Level Potomac TRACON
06:47AM 38.6667 -77.0167 360° North 192 221 3,000 -300 Level Potomac TRACON
06:48AM 38.7167 -77.0167 360° North 189 217 2,500 -540 Descending Potomac TRACON